Time;durP1;ratioP1;P1;durP2;ratioP2;P2;SDS_P1;SDS_P2;PMS_P1;PMS_P2;Temp;Humidity;BMP_temperature;BMP_pressure;BME280_temperature;BME280_humidity;BME280_pressure;Samples;Min_cycle;Max_cycle;Signal;HPM_P1;HPM_P2
2022/04/06 00:00:24;;;;;;;8.93;4.15;;;;;;;8.21;100.00;99884.88;6300037;28;20052;-78
2022/04/06 00:03:27;;;;;;;10.05;3.97;;;;;;;8.21;100.00;99890.09;6300995;28;20044;-77
2022/04/06 00:06:28;;;;;;;7.85;3.70;;;;;;;8.19;100.00;99895.44;6300687;28;20060;-77
2022/04/06 00:09:30;;;;;;;6.70;4.20;;;;;;;8.20;100.00;99896.28;6300546;28;20052;-79
2022/04/06 00:12:31;;;;;;;9.80;4.38;;;;;;;8.25;100.00;99895.06;6300004;28;20049;-78
2022/04/06 00:15:34;;;;;;;9.13;4.70;;;;;;;8.29;100.00;99893.13;6300294;28;20419;-78
2022/04/06 00:18:37;;;;;;;12.48;5.30;;;;;;;8.30;100.00;99893.03;6300395;28;20492;-77
2022/04/06 00:21:38;;;;;;;13.95;4.70;;;;;;;8.24;100.00;99895.19;6299724;28;20041;-78
2022/04/06 00:24:40;;;;;;;9.95;4.88;;;;;;;8.20;100.00;99883.19;6300583;28;20049;-78
2022/04/06 00:27:41;;;;;;;7.95;4.78;;;;;;;8.20;100.00;99889.28;6300440;28;20049;-78
2022/04/06 00:30:42;;;;;;;15.05;5.10;;;;;;;8.23;100.00;99883.03;6299254;28;20412;-78
2022/04/06 00:33:45;;;;;;;10.40;5.72;;;;;;;8.23;100.00;99904.81;6300088;28;20049;-78
2022/04/06 00:36:47;;;;;;;9.27;4.78;;;;;;;8.29;100.00;99891.34;6299977;28;20049;-78
2022/04/06 00:39:48;;;;;;;9.70;5.20;;;;;;;8.27;100.00;99887.16;6299729;28;20056;-78
2022/04/06 00:42:49;;;;;;;9.15;4.90;;;;;;;8.26;100.00;99883.66;6299477;28;20650;-78
2022/04/06 00:45:51;;;;;;;13.93;5.55;;;;;;;8.25;100.00;99887.22;6299924;28;20056;-78
2022/04/06 00:48:53;;;;;;;12.40;4.57;;;;;;;8.19;100.00;99895.44;6299498;28;20049;-78
2022/04/06 00:51:55;;;;;;;10.20;5.22;;;;;;;8.21;100.00;99879.63;6299030;28;20044;-78
2022/04/06 00:54:57;;;;;;;9.57;4.95;;;;;;;8.17;100.00;99880.75;6299691;28;20053;-78
2022/04/06 00:57:59;;;;;;;13.75;5.22;;;;;;;8.21;100.00;99877.84;6299788;28;20055;-77
2022/04/06 01:01:00;;;;;;;12.05;5.05;;;;;;;8.15;100.00;99875.59;6298577;28;20052;-78
2022/04/06 01:04:04;;;;;;;11.05;5.10;;;;;;;8.11;100.00;99871.47;6298362;28;20455;-78
2022/04/06 01:07:05;;;;;;;12.90;5.63;;;;;;;8.10;100.00;99875.03;6299309;28;20149;-78
2022/04/06 01:10:08;;;;;;;13.38;5.32;;;;;;;8.06;100.00;99871.75;6298886;28;20684;-77
2022/04/06 01:13:10;;;;;;;11.05;5.40;;;;;;;8.04;100.00;99868.38;6298443;28;20524;-77
2022/04/06 01:16:11;;;;;;;12.20;6.03;;;;;;;8.02;100.00;99857.13;6293630;28;20044;-78
2022/04/06 01:19:14;;;;;;;7.55;5.22;;;;;;;8.04;100.00;99859.66;6277911;28;20503;-78
2022/04/06 01:22:18;;;;;;;15.38;5.63;;;;;;;8.04;100.00;99857.91;6289383;28;20397;-78
2022/04/06 01:25:20;;;;;;;13.43;6.15;;;;;;;8.03;100.00;99861.44;6299006;28;20056;-77
2022/04/06 01:28:21;;;;;;;13.25;5.60;;;;;;;8.02;100.00;99858.91;6287829;28;20067;-77
2022/04/06 01:31:22;;;;;;;10.15;5.95;;;;;;;8.01;100.00;99865.94;6273584;28;20492;-78
2022/04/06 01:34:24;;;;;;;9.75;5.72;;;;;;;8.00;100.00;99853.78;6290219;28;20048;-78
2022/04/06 01:37:28;;;;;;;13.35;6.07;;;;;;;8.03;100.00;99857.97;6292691;28;20048;-77
2022/04/06 01:40:29;;;;;;;16.23;6.93;;;;;;;8.00;100.00;99856.41;6273228;28;20053;-78
2022/04/06 01:43:31;;;;;;;11.00;6.75;;;;;;;8.02;100.00;99856.31;6273962;28;20049;-77
2022/04/06 01:46:33;;;;;;;13.15;7.25;;;;;;;8.02;100.00;99857.13;6274000;28;20547;-78
2022/04/06 01:52:56;;;;;;;18.80;6.93;;;;;;;8.01;100.00;99852.00;6273068;28;20443;-77
2022/04/06 01:55:58;;;;;;;19.58;7.40;;;;;;;7.99;100.00;99846.00;6273703;28;20048;-78
2022/04/06 01:59:00;;;;;;;12.93;6.68;;;;;;;8.01;100.00;99839.75;6273173;28;20045;-78
2022/04/06 02:02:02;;;;;;;14.52;7.47;;;;;;;8.01;100.00;99833.69;6272344;28;20540;-78
2022/04/06 02:05:04;;;;;;;11.73;6.50;;;;;;;8.00;100.00;99837.25;6273311;28;20071;-78
2022/04/06 02:08:08;;;;;;;17.45;8.05;;;;;;;8.00;100.00;99830.25;6273518;28;20530;-77
2022/04/06 02:11:09;;;;;;;21.77;8.23;;;;;;;8.04;100.00;99830.88;6272578;28;20056;-77
2022/04/06 02:14:10;;;;;;;15.98;8.02;;;;;;;8.08;100.00;99828.03;6272895;28;20045;-78
2022/04/06 02:17:12;;;;;;;20.42;8.18;;;;;;;8.10;100.00;99822.69;6281288;28;20053;-77
2022/04/06 02:20:13;;;;;;;22.65;8.02;;;;;;;8.08;100.00;99819.31;6272111;28;20056;-78
2022/04/06 02:23:16;;;;;;;15.68;7.22;;;;;;;8.07;100.00;99815.84;6272618;28;20048;-76
2022/04/06 02:26:18;;;;;;;17.23;7.85;;;;;;;8.08;100.00;99816.69;6272877;28;20056;-77
2022/04/06 02:29:19;;;;;;;17.23;8.18;;;;;;;8.10;100.00;99828.75;6272404;28;20048;-76
2022/04/06 02:32:21;;;;;;;18.40;8.20;;;;;;;8.12;100.00;99813.81;6271915;28;20053;-78
2022/04/06 02:35:22;;;;;;;19.40;10.20;;;;;;;8.13;100.00;99807.66;6272718;28;20056;-77
2022/04/06 02:38:25;;;;;;;24.50;8.55;;;;;;;8.14;100.00;99806.72;6272027;28;20053;-77
2022/04/06 02:41:26;;;;;;;18.00;8.52;;;;;;;8.15;100.00;99804.94;6271234;28;20045;-76
2022/04/06 02:44:28;;;;;;;23.65;8.63;;;;;;;8.16;100.00;99800.56;6271811;28;20139;-75
2022/04/06 02:47:29;;;;;;;21.67;8.98;;;;;;;8.17;100.00;99797.84;6271591;28;20045;-77
2022/04/06 02:50:30;;;;;;;13.52;7.90;;;;;;;8.17;100.00;99799.63;6270866;28;20045;-76
2022/04/06 02:53:33;;;;;;;16.55;9.15;;;;;;;8.16;100.00;99795.31;6271154;28;20071;-77
2022/04/06 02:56:35;;;;;;;16.17;7.88;;;;;;;8.17;100.00;99800.44;6271954;28;20055;-77
2022/04/06 02:59:39;;;;;;;21.30;9.93;;;;;;;8.22;100.00;99797.56;6271599;28;20515;-77
2022/04/06 03:02:40;;;;;;;18.92;9.05;;;;;;;8.23;100.00;99792.25;6271201;28;20057;-77
2022/04/06 03:05:42;;;;;;;18.45;8.70;;;;;;;8.23;100.00;99784.41;6271513;28;20045;-77
2022/04/06 03:08:45;;;;;;;18.50;8.95;;;;;;;8.22;100.00;99789.72;6271261;28;20056;-77
2022/04/06 03:11:46;;;;;;;22.83;8.20;;;;;;;8.25;100.00;99779.91;6270860;28;20052;-78
2022/04/06 03:14:48;;;;;;;17.88;8.32;;;;;;;8.25;100.00;99779.91;6271375;28;20049;-76
2022/04/06 03:17:49;;;;;;;16.55;7.85;;;;;;;8.27;100.00;99785.06;6281243;28;20045;-77
2022/04/06 03:20:50;;;;;;;18.23;7.93;;;;;;;8.29;100.00;99784.03;6283131;28;20041;-77
2022/04/06 03:23:53;;;;;;;15.98;7.78;;;;;;;8.29;100.00;99775.34;6271969;28;20049;-77
2022/04/06 03:26:54;;;;;;;18.80;8.55;;;;;;;8.31;100.00;99776.94;6273180;28;20052;-78
2022/04/06 03:29:56;;;;;;;14.23;7.45;;;;;;;8.33;100.00;99774.22;6284556;28;20051;-78
2022/04/06 03:32:57;;;;;;;17.23;7.95;;;;;;;8.34;100.00;99775.91;6281055;28;20052;-76
2022/04/06 03:35:59;;;;;;;13.02;6.70;;;;;;;8.37;100.00;99771.38;6293146;28;20048;-78
2022/04/06 03:39:01;;;;;;;15.70;7.47;;;;;;;8.40;100.00;99770.31;6301114;28;20052;-76
2022/04/06 03:42:03;;;;;;;17.08;7.00;;;;;;;8.42;100.00;99772.88;6295639;28;20045;-77
2022/04/06 03:45:06;;;;;;;17.08;8.00;;;;;;;8.41;100.00;99773.81;6289997;28;20052;-77
2022/04/06 03:48:08;;;;;;;16.48;6.55;;;;;;;8.39;100.00;99760.78;6300384;28;20052;-78
2022/04/06 03:51:09;;;;;;;19.10;6.80;;;;;;;8.41;100.00;99760.72;6299748;28;20045;-76
2022/04/06 03:54:13;;;;;;;19.83;7.45;;;;;;;8.37;100.00;99766.13;6300288;28;20055;-76
2022/04/06 03:57:14;;;;;;;14.63;7.00;;;;;;;8.36;100.00;99763.59;6300530;28;20055;-77
2022/04/06 04:00:17;;;;;;;11.85;6.18;;;;;;;8.35;100.00;99760.09;6299845;28;20052;-76
2022/04/06 04:03:19;;;;;;;10.82;6.30;;;;;;;8.37;100.00;99766.13;6300478;28;20053;-77
2022/04/06 04:06:20;;;;;;;14.40;6.32;;;;;;;8.36;100.00;99766.22;6300132;28;20226;-77
2022/04/06 04:09:23;;;;;;;10.95;5.35;;;;;;;8.36;100.00;99764.47;6299806;28;20049;-76
2022/04/06 04:12:24;;;;;;;13.95;6.43;;;;;;;8.34;100.00;99754.97;6299210;28;20055;-76
2022/04/06 04:15:26;;;;;;;16.67;4.85;;;;;;;8.37;100.00;99754.81;6299910;28;20059;-76
2022/04/06 04:18:27;;;;;;;10.05;5.25;;;;;;;8.35;100.00;99767.97;6299906;28;20060;-76
2022/04/06 04:21:35;;;;;;;17.08;6.05;;;;;;;8.30;100.00;99764.78;6298945;28;20067;-76
2022/04/06 04:24:37;;;;;;;12.95;5.38;;;;;;;8.32;100.00;99770.78;6300076;28;20049;-76
2022/04/06 04:27:39;;;;;;;13.45;5.80;;;;;;;8.30;100.00;99766.56;6299704;28;20055;-77
2022/04/06 04:30:40;;;;;;;10.13;5.22;;;;;;;8.32;100.00;99768.16;6299273;28;20105;-77
2022/04/06 04:33:42;;;;;;;14.48;5.78;;;;;;;8.29;100.00;99765.72;6299614;28;20044;-78
2022/04/06 04:36:43;;;;;;;14.70;5.97;;;;;;;8.31;100.00;99763.88;6299934;28;20052;-77
2022/04/06 04:39:46;;;;;;;14.88;5.07;;;;;;;8.29;100.00;99770.94;6299550;28;20048;-78
2022/04/06 04:42:47;;;;;;;18.92;5.20;;;;;;;8.28;100.00;99766.66;6299262;28;20045;-77
2022/04/06 04:45:49;;;;;;;9.15;4.75;;;;;;;8.28;100.00;99757.97;6299983;28;20496;-77
2022/04/06 04:48:50;;;;;;;6.90;4.32;;;;;;;8.26;100.00;99765.88;6299749;28;20044;-77
2022/04/06 04:51:52;;;;;;;17.80;6.75;;;;;;;8.26;100.00;99760.66;6299467;28;20495;-77
2022/04/06 04:54:54;;;;;;;9.65;5.03;;;;;;;8.28;100.00;99755.34;6299158;28;20049;-77
2022/04/06 04:57:56;;;;;;;8.57;4.32;;;;;;;8.29;100.00;99755.25;6299232;28;20488;-76
2022/04/06 05:00:57;;;;;;;8.68;4.53;;;;;;;8.31;100.00;99753.41;6298020;28;20044;-77
2022/04/06 05:03:58;;;;;;;11.20;4.72;;;;;;;8.27;100.00;99751.06;6298969;28;20048;-76
2022/04/06 05:07:00;;;;;;;7.85;4.60;;;;;;;8.25;100.00;99751.13;6298808;28;20055;-76
2022/04/06 05:10:04;;;;;;;12.43;4.82;;;;;;;8.28;100.00;99745.72;6298394;28;20063;-76
2022/04/06 05:13:05;;;;;;;11.02;3.88;;;;;;;8.29;100.00;99752.63;6298098;28;20044;-76
2022/04/06 05:16:07;;;;;;;15.70;4.95;;;;;;;8.28;100.00;99753.56;6281568;28;20045;-76
2022/04/06 05:19:09;;;;;;;10.13;4.40;;;;;;;8.25;100.00;99753.75;6286404;28;20423;-76
2022/04/06 05:22:10;;;;;;;8.88;4.32;;;;;;;8.24;100.00;99753.84;6286472;28;20519;-77
2022/04/06 05:25:13;;;;;;;9.20;3.83;;;;;;;8.22;100.00;99753.94;6273813;28;20067;-77
2022/04/06 05:28:15;;;;;;;10.55;5.25;;;;;;;8.17;100.00;99760.34;6273676;28;20053;-77
2022/04/06 05:31:17;;;;;;;8.73;4.38;;;;;;;8.09;100.00;99755.59;6288334;28;20114;-76
2022/04/06 05:34:18;;;;;;;13.85;4.82;;;;;;;8.05;100.00;99752.31;6297882;28;20496;-77
2022/04/06 05:37:20;;;;;;;10.13;4.53;;;;;;;8.04;100.00;99755.00;6297950;28;20499;-77
2022/04/06 05:40:23;;;;;;;11.13;4.68;;;;;;;8.06;100.00;99758.38;6284772;28;20542;-76
2022/04/06 05:43:24;;;;;;;18.42;5.13;;;;;;;8.08;100.00;99756.50;6298191;28;20059;-77
2022/04/06 05:46:26;;;;;;;7.47;4.70;;;;;;;8.07;100.00;99757.44;6298105;28;20049;-77
2022/04/06 05:49:27;;;;;;;8.50;5.07;;;;;;;8.09;100.00;99756.44;6297791;28;20053;-76
2022/04/06 05:52:28;;;;;;;8.52;5.07;;;;;;;8.12;100.00;99750.16;6297310;28;20048;-77
2022/04/06 05:55:31;;;;;;;8.48;4.55;;;;;;;8.14;100.00;99753.56;6297540;28;20053;-77
2022/04/06 05:58:33;;;;;;;9.35;4.68;;;;;;;8.14;100.00;99750.94;6297748;28;20071;-76
2022/04/06 06:01:34;;;;;;;9.43;5.10;;;;;;;8.16;100.00;99756.06;6296365;28;20503;-76
2022/04/06 06:04:35;;;;;;;9.77;6.38;;;;;;;8.15;100.00;99739.53;6297423;28;20056;-76
2022/04/06 06:07:37;;;;;;;9.82;4.70;;;;;;;8.14;100.00;99743.91;6285285;28;20075;-77
2022/04/06 06:10:39;;;;;;;12.02;5.70;;;;;;;8.16;100.00;99730.72;6296247;28;20515;-77
2022/04/06 06:13:41;;;;;;;9.75;5.30;;;;;;;8.18;100.00;99739.34;6297206;28;20500;-76
2022/04/06 06:16:44;;;;;;;11.32;5.68;;;;;;;8.18;100.00;99735.91;6296931;28;20053;-76
2022/04/06 06:19:46;;;;;;;14.48;5.43;;;;;;;8.18;100.00;99736.72;6296553;28;20135;-77
2022/04/06 06:22:47;;;;;;;13.95;5.65;;;;;;;8.22;100.00;99733.00;6296565;28;20048;-76
2022/04/06 06:25:50;;;;;;;9.73;4.85;;;;;;;8.27;100.00;99735.34;6297128;28;20056;-76
2022/04/06 06:28:51;;;;;;;10.10;5.75;;;;;;;8.29;100.00;99733.47;6296685;28;20052;-76
2022/04/06 06:31:54;;;;;;;11.35;6.07;;;;;;;8.32;100.00;99743.75;6295860;28;20063;-77
2022/04/06 06:34:55;;;;;;;16.60;5.70;;;;;;;8.34;100.00;99728.78;6287408;28;21379;-77
2022/04/06 06:37:57;;;;;;;11.35;5.22;;;;;;;8.37;100.00;99739.13;6271496;28;20059;-76
2022/04/06 06:41:00;;;;;;;14.20;5.82;;;;;;;8.38;100.00;99741.63;6255217;28;20046;-76
2022/04/06 06:44:02;;;;;;;10.48;5.32;;;;;;;8.41;100.00;99740.63;6247061;28;20057;-77
2022/04/06 06:47:04;;;;;;;10.25;6.00;;;;;;;8.46;100.00;99735.09;6246798;28;20180;-76
2022/04/06 06:50:06;;;;;;;15.73;5.45;;;;;;;8.45;100.00;99723.78;6246458;28;20053;-76
2022/04/06 06:53:07;;;;;;;8.93;4.80;;;;;;;8.46;100.00;99741.19;6246210;28;20045;-75
2022/04/06 06:56:11;;;;;;;9.93;5.72;;;;;;;8.49;100.00;99734.91;6246898;28;20056;-76
2022/04/06 06:59:12;;;;;;;12.85;4.80;;;;;;;8.50;100.00;99728.75;6246504;28;20049;-76
2022/04/06 07:02:13;;;;;;;7.93;5.15;;;;;;;8.53;100.00;99728.53;6245231;28;20045;-76
2022/04/06 07:05:15;;;;;;;12.52;4.63;;;;;;;8.58;100.00;99721.25;6246620;28;20045;-76
2022/04/06 07:08:16;;;;;;;6.40;4.38;;;;;;;8.60;100.00;99738.56;6246420;28;20080;-76
2022/04/06 07:11:19;;;;;;;10.25;4.85;;;;;;;8.60;100.00;99735.09;6245553;28;20045;-75
2022/04/06 07:14:20;;;;;;;8.05;4.60;;;;;;;8.61;100.00;99731.53;6246445;28;20060;-76
2022/04/06 07:17:25;;;;;;;10.23;3.78;;;;;;;8.66;100.00;99720.78;6246549;28;20053;-76
2022/04/06 07:20:29;;;;;;;9.20;3.85;;;;;;;8.66;100.00;99737.34;6245746;28;20052;-76
2022/04/06 07:23:30;;;;;;;6.47;4.28;;;;;;;8.68;100.00;99742.50;6246606;28;20052;-75
2022/04/06 07:26:33;;;;;;;5.25;3.70;;;;;;;8.68;100.00;99730.22;6265618;28;20052;-76
2022/04/06 07:29:34;;;;;;;11.10;3.72;;;;;;;8.74;100.00;99737.72;6275331;28;20045;-76
2022/04/06 07:32:37;;;;;;;6.57;3.70;;;;;;;8.76;100.00;99732.34;6281939;28;20488;-76
2022/04/06 07:35:39;;;;;;;7.97;3.60;;;;;;;8.77;100.00;99711.34;6272354;28;20052;-77
2022/04/06 07:38:40;;;;;;;6.45;3.40;;;;;;;8.77;100.00;99718.34;6284702;28;20057;-78
2022/04/06 07:41:43;;;;;;;7.53;3.13;;;;;;;8.80;100.00;99710.28;6270217;28;20044;-76
2022/04/06 07:44:44;;;;;;;10.77;3.35;;;;;;;8.81;100.00;99707.59;6272868;28;20056;-76
2022/04/06 07:47:48;;;;;;;5.63;3.13;;;;;;;8.80;100.00;99711.13;6274050;28;20051;-76
2022/04/06 07:50:49;;;;;;;3.15;2.20;;;;;;;8.84;100.00;99709.16;6286796;28;20048;-76
2022/04/06 07:53:50;;;;;;;3.63;2.60;;;;;;;8.86;100.00;99710.75;6295673;28;20050;-77
2022/04/06 07:56:53;;;;;;;3.03;2.35;;;;;;;8.87;100.00;99699.31;6295753;28;20048;-76
2022/04/06 07:59:56;;;;;;;5.30;2.50;;;;;;;8.88;100.00;99706.25;6280545;28;20068;-76
2022/04/06 08:02:57;;;;;;;4.18;2.58;;;;;;;8.89;100.00;99691.34;6275245;28;20064;-75
2022/04/06 08:05:59;;;;;;;4.85;3.03;;;;;;;8.88;100.00;99697.53;6282859;28;20052;-75
2022/04/06 08:09:02;;;;;;;6.32;3.30;;;;;;;8.89;100.00;99696.59;6280603;28;20041;-76
2022/04/06 08:12:06;;;;;;;4.03;2.30;;;;;;;8.91;100.00;99688.66;6269836;28;20053;-76
2022/04/06 08:15:09;;;;;;;4.70;2.08;;;;;;;8.96;100.00;99711.00;6283060;28;20052;-76
2022/04/06 08:18:11;;;;;;;7.53;2.72;;;;;;;9.04;100.00;99698.28;6275044;28;20179;-75
2022/04/06 08:21:12;;;;;;;2.85;2.20;;;;;;;9.10;100.00;99689.16;6274071;28;20130;-75
2022/04/06 08:24:14;;;;;;;8.52;1.90;;;;;;;9.15;100.00;99684.47;6274955;28;20147;-75
2022/04/06 08:27:17;;;;;;;3.13;2.03;;;;;;;9.17;100.00;99689.59;6274655;28;20644;-75
2022/04/06 08:30:20;;;;;;;9.50;3.10;;;;;;;9.19;100.00;99695.59;6274139;28;20049;-75
2022/04/06 08:33:21;;;;;;;4.88;2.25;;;;;;;9.17;100.00;99694.84;6273235;28;20489;-76
2022/04/06 08:36:23;;;;;;;5.88;2.45;;;;;;;9.13;100.00;99687.19;6272620;28;20063;-75
2022/04/06 08:39:24;;;;;;;3.50;2.38;;;;;;;9.08;100.00;99691.91;6273025;28;20130;-77
2022/04/06 08:42:31;;;;;;;8.68;2.50;;;;;;;9.06;100.00;99687.69;6271927;28;20041;-77
2022/04/06 08:45:34;;;;;;;4.05;2.00;;;;;;;9.05;100.00;99689.47;6272969;28;20052;-76
2022/04/06 08:48:37;;;;;;;6.03;1.67;;;;;;;9.05;100.00;99673.75;6275378;28;20049;-76
2022/04/06 08:51:40;;;;;;;4.85;1.83;;;;;;;9.06;100.00;99699.00;6278908;28;20049;-75
2022/04/06 08:54:41;;;;;;;5.57;1.52;;;;;;;9.03;100.00;99690.47;6282712;28;20491;-76
2022/04/06 08:57:44;;;;;;;7.13;1.60;;;;;;;9.02;100.00;99687.03;6290420;28;20048;-76
2022/04/06 09:00:45;;;;;;;2.00;1.48;;;;;;;9.00;100.00;99678.44;6298258;28;20052;-76
2022/04/06 09:03:47;;;;;;;2.25;1.40;;;;;;;9.00;100.00;99682.84;6298847;28;20044;-76
2022/04/06 09:06:48;;;;;;;2.22;1.52;;;;;;;8.99;100.00;99687.22;6298840;28;20060;-76
2022/04/06 09:09:51;;;;;;;1.58;1.10;;;;;;;9.01;100.00;99671.41;6298347;28;20059;-77
2022/04/06 09:13:07;;;;;;;5.80;1.67;;;;;;;9.00;100.00;99683.69;6295250;28;20462;-76
2022/04/06 09:16:10;;;;;;;2.38;1.15;;;;;;;9.00;100.00;99675.81;6283485;28;20052;-77
2022/04/06 09:19:13;;;;;;;1.52;1.30;;;;;;;9.02;100.00;99692.25;6289048;28;20128;-77
2022/04/06 09:22:14;;;;;;;2.60;1.10;;;;;;;9.02;100.00;99687.03;6272599;28;20051;-77
2022/04/06 09:25:16;;;;;;;1.50;1.23;;;;;;;9.03;100.00;99685.25;6272354;28;20423;-76
2022/04/06 09:28:19;;;;;;;9.38;3.40;;;;;;;9.04;100.00;99687.78;6289493;28;20044;-78
2022/04/06 09:31:21;;;;;;;2.42;1.73;;;;;;;9.05;100.00;99683.38;6297603;28;20049;-77
2022/04/06 09:34:24;;;;;;;4.13;1.13;;;;;;;9.10;100.00;99687.38;6280779;28;20115;-76
2022/04/06 09:37:27;;;;;;;1.80;1.23;;;;;;;9.09;100.00;99685.72;6273143;28;20049;-77
2022/04/06 09:40:30;;;;;;;6.20;1.42;;;;;;;9.11;100.00;99680.34;6272208;28;20053;-76
2022/04/06 09:43:34;;;;;;;2.83;1.20;;;;;;;9.08;100.00;99684.03;6268745;28;20545;-76
2022/04/06 09:50:26;;;;;;;6.80;1.63;;;;;;;9.06;100.00;99685.06;6239005;28;20052;-76
2022/04/06 09:53:29;;;;;;;2.83;1.50;;;;;;;9.03;100.00;99680.84;6268395;28;20080;-77
2022/04/06 09:56:32;;;;;;;3.55;2.42;;;;;;;9.03;100.00;99690.47;6283594;28;20055;-76
2022/04/06 09:59:37;;;;;;;4.97;1.45;;;;;;;9.05;100.00;99673.75;6296990;28;20522;-76
2022/04/06 10:02:41;;;;;;;2.75;1.55;;;;;;;9.04;100.00;99672.06;6296743;28;20044;-76
2022/04/06 10:05:43;;;;;;;5.60;2.83;;;;;;;9.02;100.00;99668.69;6294062;28;20183;-77
2022/04/06 10:08:44;;;;;;;6.72;1.90;;;;;;;9.06;100.00;99675.41;6282301;28;20051;-75
2022/04/06 10:11:46;;;;;;;6.40;2.10;;;;;;;9.09;100.00;99656.03;6268295;28;20080;-76
2022/04/06 10:14:49;;;;;;;3.13;1.48;;;;;;;9.11;100.00;99659.38;6271631;28;20049;-77
2022/04/06 10:17:50;;;;;;;5.78;2.70;;;;;;;9.10;100.00;99662.97;6270523;28;20041;-77
2022/04/06 10:20:59;;;;;;;5.25;1.85;;;;;;;9.09;100.00;99669.16;6273840;28;20071;-76
2022/04/06 10:24:15;;;;;;;4.75;1.92;;;;;;;9.10;100.00;99660.34;6270523;28;20041;-77
2022/04/06 10:27:22;;;;;;;4.13;1.80;;;;;;;9.14;100.00;99653.97;6270262;28;20049;-76
2022/04/06 10:30:28;;;;;;;2.92;1.63;;;;;;;9.14;100.00;99664.44;6269346;28;20063;-76
2022/04/06 10:33:29;;;;;;;4.20;1.90;;;;;;;9.13;100.00;99652.28;6272486;28;20052;-76
2022/04/06 10:36:30;;;;;;;3.90;1.88;;;;;;;9.14;100.00;99661.81;6271225;28;20068;-76
2022/04/06 10:39:32;;;;;;;3.05;1.42;;;;;;;9.12;100.00;99663.69;6272037;28;20634;-77
2022/04/06 10:42:34;;;;;;;2.50;1.83;;;;;;;9.14;100.00;99646.09;6271174;28;20056;-76
2022/04/06 10:45:37;;;;;;;4.18;1.70;;;;;;;9.19;100.00;99644.00;6268808;28;20045;-76
2022/04/06 10:48:56;;;;;;;5.50;1.70;;;;;;;9.27;100.00;99633.88;6287876;28;20415;-76
2022/04/06 10:51:59;;;;;;;5.40;1.50;;;;;;;9.38;100.00;99662.00;6295721;28;20050;-76
2022/04/06 10:55:08;;;;;;;1.65;1.17;;;;;;;9.51;100.00;99634.03;6296441;28;20071;-75
2022/04/06 10:58:09;;;;;;;2.65;1.33;;;;;;;9.58;100.00;99627.44;6296516;28;20049;-77
2022/04/06 11:01:16;;;;;;;1.70;1.30;;;;;;;9.67;100.00;99625.94;6283264;28;20049;-76
2022/04/06 11:04:19;;;;;;;1.27;1.17;;;;;;;9.72;100.00;99630.88;6271217;28;20049;-76
2022/04/06 11:11:35;;;;;;;4.03;2.08;;;;;;;9.72;100.00;99623.00;6270458;28;20049;-75
2022/04/06 11:14:36;;;;;;;3.03;1.77;;;;;;;9.70;100.00;99619.66;6271236;28;20048;-76
2022/04/06 11:17:41;;;;;;;8.10;1.58;;;;;;;9.68;100.00;99621.56;6271498;28;20049;-75
2022/04/06 11:20:42;;;;;;;3.38;1.70;;;;;;;9.65;100.00;99609.47;6270457;28;20052;-77
2022/04/06 11:23:44;;;;;;;2.28;1.42;;;;;;;9.61;100.00;99621.97;6271441;28;20061;-76
2022/04/06 11:26:45;;;;;;;2.17;1.25;;;;;;;9.58;100.00;99616.94;6271058;28;20053;-76
2022/04/06 11:29:47;;;;;;;2.97;1.70;;;;;;;9.58;100.00;99606.44;6270792;28;20416;-77
2022/04/06 11:32:54;;;;;;;4.03;1.80;;;;;;;9.59;100.00;99610.75;6274466;28;20824;-76
2022/04/06 11:35:55;;;;;;;4.65;2.03;;;;;;;9.61;100.00;99621.97;6296092;28;20045;-76
2022/04/06 11:38:57;;;;;;;2.38;1.73;;;;;;;9.53;100.00;99613.75;6295878;28;20049;-77
2022/04/06 11:42:00;;;;;;;2.05;1.50;;;;;;;9.53;100.00;99613.75;6294971;28;20051;-77
2022/04/06 11:45:01;;;;;;;2.20;1.42;;;;;;;9.54;100.00;99602.34;6274454;28;20040;-76
2022/04/06 11:48:07;;;;;;;2.63;1.60;;;;;;;9.58;100.00;99611.69;6278932;28;20055;-76
2022/04/06 11:51:09;;;;;;;2.33;1.50;;;;;;;9.52;100.00;99606.00;6285953;28;20419;-77
2022/04/06 11:54:10;;;;;;;5.25;1.88;;;;;;;9.50;100.00;99608.75;6281974;28;20067;-76
2022/04/06 11:57:12;;;;;;;5.80;2.38;;;;;;;9.49;100.00;99601.78;6280727;28;20071;-76
2022/04/06 12:00:17;;;;;;;6.85;2.33;;;;;;;9.47;100.00;99605.47;6274881;28;20053;-77
2022/04/06 12:03:28;;;;;;;3.63;2.10;;;;;;;9.42;100.00;99613.66;6277185;28;20044;-76
2022/04/06 12:06:34;;;;;;;10.25;3.58;;;;;;;9.40;100.00;99607.66;6286018;28;20053;-77
2022/04/06 12:09:35;;;;;;;5.90;3.33;;;;;;;9.38;100.00;99607.75;6295693;28;20045;-77
2022/04/06 12:12:37;;;;;;;5.18;2.50;;;;;;;9.35;100.00;99607.97;6290984;28;20606;-76
2022/04/06 12:15:40;;;;;;;5.57;3.00;;;;;;;9.33;100.00;99612.47;6294434;28;20076;-76
2022/04/06 12:18:43;;;;;;;4.15;2.72;;;;;;;9.31;100.00;99613.50;6274845;28;20045;-77
2022/04/06 12:21:46;;;;;;;7.18;3.17;;;;;;;9.30;100.00;99615.28;6274313;28;20053;-77
2022/04/06 12:24:47;;;;;;;5.78;3.03;;;;;;;9.27;100.00;99619.94;6274886;28;20488;-76
2022/04/06 12:27:48;;;;;;;4.90;3.03;;;;;;;9.24;100.00;99602.59;6274950;28;20045;-77
2022/04/06 12:30:54;;;;;;;5.15;3.40;;;;;;;9.24;100.00;99599.16;6274233;28;20052;-76
2022/04/06 12:33:57;;;;;;;6.00;2.60;;;;;;;9.30;100.00;99596.94;6288281;28;20048;-76
2022/04/06 12:36:59;;;;;;;4.00;2.95;;;;;;;9.35;100.00;99592.22;6299467;28;20137;-77
2022/04/06 12:40:02;;;;;;;3.78;2.17;;;;;;;9.33;100.00;99596.75;6299139;28;20056;-76
2022/04/06 12:43:03;;;;;;;5.45;2.75;;;;;;;9.29;100.00;99590.03;6298933;28;20397;-76
2022/04/06 12:46:05;;;;;;;9.15;4.30;;;;;;;9.27;100.00;99619.94;6299215;28;20059;-75
2022/04/06 12:49:36;;;;;;;3.40;2.72;;;;;;;9.23;100.00;99587.81;6289701;28;20132;-76
2022/04/06 12:52:38;;;;;;;5.13;3.28;;;;;;;9.25;100.00;99575.44;6221953;28;20109;-76
2022/04/06 12:55:39;;;;;;;4.72;2.58;;;;;;;9.21;100.00;99586.22;6274101;28;20198;-76
2022/04/06 12:58:40;;;;;;;7.68;3.03;;;;;;;9.18;100.00;99578.59;6273152;28;20045;-75
2022/04/06 13:01:45;;;;;;;3.80;3.05;;;;;;;9.17;100.00;99576.88;6273005;28;20075;-75
2022/04/06 13:04:48;;;;;;;4.55;3.22;;;;;;;9.18;100.00;99578.59;6272818;28;20176;-75
2022/04/06 13:07:52;;;;;;;4.47;3.15;;;;;;;9.17;100.00;99582.13;6272407;28;20562;-76
2022/04/06 13:10:53;;;;;;;8.30;3.42;;;;;;;9.17;100.00;99576.88;6271256;28;20049;-76
2022/04/06 13:13:55;;;;;;;4.57;3.53;;;;;;;9.16;100.00;99565.56;6272229;28;20045;-76
2022/04/06 13:16:56;;;;;;;5.10;3.35;;;;;;;9.20;100.00;99567.03;6272281;28;20045;-79
2022/04/06 13:19:59;;;;;;;5.30;3.30;;;;;;;9.18;100.00;99592.53;6272779;28;20423;-75
2022/04/06 13:23:01;;;;;;;5.78;3.15;;;;;;;9.17;100.00;99576.88;6273134;28;20059;-75
2022/04/06 13:26:02;;;;;;;4.47;2.72;;;;;;;9.13;100.00;99564.00;6272786;28;20057;-75
2022/04/06 13:29:04;;;;;;;5.47;3.22;;;;;;;9.10;100.00;99566.81;6272070;28;20053;-76
2022/04/06 13:32:06;;;;;;;3.88;2.72;;;;;;;9.08;100.00;99560.84;6282073;28;20055;-76
2022/04/06 13:35:09;;;;;;;6.68;3.28;;;;;;;9.09;100.00;99561.69;6282543;28;20056;-76
2022/04/06 13:38:11;;;;;;;4.18;3.03;;;;;;;9.04;100.00;99572.47;6270931;28;20432;-76
2022/04/06 13:41:12;;;;;;;6.18;2.88;;;;;;;8.99;100.00;99556.19;6286543;28;20044;-75
2022/04/06 13:44:14;;;;;;;3.42;2.78;;;;;;;8.95;100.00;99557.38;6297613;28;20048;-76
2022/04/06 13:47:16;;;;;;;4.30;2.63;;;;;;;8.98;100.00;99554.53;6297522;28;20434;-76
2022/04/06 13:50:21;;;;;;;4.60;3.03;;;;;;;8.99;100.00;99543.09;6292837;28;20052;-75
2022/04/06 13:53:22;;;;;;;4.05;2.55;;;;;;;9.01;100.00;99529.91;6274657;28;20041;-76
2022/04/06 13:56:24;;;;;;;7.00;2.60;;;;;;;9.04;100.00;99527.09;6297452;28;20059;-75
2022/04/06 13:59:25;;;;;;;4.00;2.45;;;;;;;9.02;100.00;99531.59;6297403;28;20049;-75
2022/04/06 14:02:27;;;;;;;4.13;2.70;;;;;;;9.03;100.00;99520.97;6284572;28;20055;-76
2022/04/06 14:05:31;;;;;;;2.90;2.10;;;;;;;9.04;100.00;99521.84;6275963;28;20045;-76
2022/04/06 14:08:33;;;;;;;3.05;2.20;;;;;;;9.03;100.00;99523.59;6285916;28;20558;-74
2022/04/06 14:11:34;;;;;;;5.20;2.25;;;;;;;8.99;100.00;99521.28;6288475;28;20049;-75
2022/04/06 14:14:36;;;;;;;3.35;2.45;;;;;;;8.97;100.00;99517.94;6270564;28;20053;-74
2022/04/06 14:17:37;;;;;;;5.13;2.17;;;;;;;8.94;100.00;99507.66;6264047;28;20045;-75
2022/04/06 14:20:40;;;;;;;1.45;1.35;;;;;;;8.94;100.00;99505.03;6271107;28;20044;-75
2022/04/06 14:23:42;;;;;;;2.47;1.55;;;;;;;8.95;100.00;99499.72;6271959;28;20041;-75